首页
METAR-TAF:

METAR-TAF

机场 :

费尔班克斯国际机场

費爾班克斯, 阿拉斯加州, 美国

纬度: 64-48-14N, 经度: 147-52-34W, 海拔: 132米

当前天气观测

该预报发布于1小时和7分钟前的00:53 UTC
风速4节,风向北转东北
温度 -22°C
湿度 76%
气压 1012 hPa
能見度: 16.1公里
少量云层高于15000英尺
散云层高于20000英尺

METAR: PAFA 230053Z 03004KT 10SM FEW150 SCT200 M22/M25 A2988 RMK AO2 SLP137 T12171250 PNO

时间: 17:00 (02:00 UTC)

预报

该预报发布于1小时和35分钟前的00:25 UTC
预报有效从23日的 00点(UTC)到 24日的 06点(UTC)
风速6节,风向东北
能見度: 10公里
少量云层高于15000英尺
散云层高于20000英尺
从 23日的 0900点(UTC)
风速6节,风向东北
能見度: 10公里
少量云层高于15000英尺
散云层高于20000英尺
从 23日的 2100点(UTC)
风速6节,风向东北
能見度: 10公里
多云层高于10000英尺

TAF: PAFA 230025Z 2300/2406 04006KT P6SM FEW150 SCT200 WS012/08025KT FM230900 04006KT P6SM FEW150 SCT200 FM232100 05006KT P6SM BKN100

超过4000个机场的气象观测和天气预报(METAR&TAF报告)。

可查询的气象台以黄色和红色小点在地图上表示。

将鼠标移到小点上方,可查看气象台名称。

然后点击查看天气观测和预报。

如需切换地图:点击带黑十字的绿色按钮放大地图;点击带横线的绿色按钮缩小地图;或者点击绿色箭头查看邻近地区的地图。


METAR-TAF: